Time;durP1;ratioP1;P1;durP2;ratioP2;P2;SDS_P1;SDS_P2;PMS_P1;PMS_P2;Temp;Humidity;BMP_temperature;BMP_pressure;BME280_temperature;BME280_humidity;BME280_pressure;Samples;Min_cycle;Max_cycle;Signal;HPM_P1;HPM_P2
2022/11/13 00:01:16;;;;;;;65.23;41.60;;;6.40;99.90;;;;;;4881935;29;37875;-78
2022/11/13 00:03:42;;;;;;;68.97;43.43;;;6.50;99.90;;;;;;4881314;29;36969;-79
2022/11/13 00:06:09;;;;;;;63.80;42.80;;;6.40;99.90;;;;;;4879762;29;36897;-80
2022/11/13 00:08:36;;;;;;;68.03;42.37;;;6.30;99.90;;;;;;4888930;29;38204;-79
2022/11/13 00:11:08;;;;;;;62.87;41.67;;;6.40;99.90;;;;;;4879961;29;38705;-79
2022/11/13 00:13:34;;;;;;;65.72;45.03;;;6.50;99.90;;;;;;4881974;29;48855;-80
2022/11/13 00:16:06;;;;;;;65.43;43.90;;;6.60;99.90;;;;;;4887045;29;39245;-78
2022/11/13 00:18:36;;;;;;;62.30;44.20;;;6.50;99.90;;;;;;4881208;29;47098;-79
2022/11/13 00:21:11;;;;;;;64.67;42.97;;;6.50;99.90;;;;;;4880555;29;38047;-80
2022/11/13 00:23:37;;;;;;;66.40;45.93;;;6.50;99.90;;;;;;4884309;29;47115;-80
2022/11/13 00:26:28;;;;;;;65.40;45.77;;;6.40;99.90;;;;;;4883719;29;38251;-78
2022/11/13 00:28:59;;;;;;;63.17;41.80;;;6.40;99.90;;;;;;4881377;29;48962;-79
2022/11/13 00:31:27;;;;;;;68.45;47.60;;;6.40;99.90;;;;;;4883635;29;37089;-80
2022/11/13 00:33:54;;;;;;;62.17;44.20;;;6.30;99.90;;;;;;4884249;29;37234;-80
2022/11/13 00:36:23;;;;;;;57.87;43.53;;;6.30;99.90;;;;;;4879757;29;38275;-80
2022/11/13 00:38:50;;;;;;;55.60;40.33;;;6.30;99.90;;;;;;4895201;29;36484;-79
2022/11/13 00:41:16;;;;;;;59.37;42.93;;;6.40;99.90;;;;;;4879256;29;37985;-79
2022/11/13 00:43:42;;;;;;;58.73;41.60;;;6.40;99.90;;;;;;4887907;29;38287;-80
2022/11/13 00:46:09;;;;;;;61.87;43.03;;;6.40;99.90;;;;;;4873723;29;38683;-79
2022/11/13 00:48:36;;;;;;;70.13;46.77;;;6.40;99.90;;;;;;4879923;29;37391;-80
2022/11/13 00:51:02;;;;;;;68.33;47.80;;;6.30;99.90;;;;;;4877332;29;38907;-81
2022/11/13 00:53:28;;;;;;;62.60;42.57;;;6.30;99.90;;;;;;4881413;29;37711;-80
2022/11/13 00:55:55;;;;;;;55.63;40.27;;;6.30;99.90;;;;;;4886250;29;37829;-79
2022/11/13 00:58:21;;;;;;;66.03;44.90;;;6.30;99.90;;;;;;4878585;29;36799;-78
2022/11/13 01:00:47;;;;;;;71.13;47.50;;;6.30;99.90;;;;;;4877433;29;38096;-79
2022/11/13 01:03:16;;;;;;;66.30;47.00;;;6.30;99.90;;;;;;4871291;29;36469;-79
2022/11/13 01:05:43;;;;;;;59.57;45.77;;;6.20;99.90;;;;;;4882784;29;38212;-80
2022/11/13 01:08:11;;;;;;;58.30;42.10;;;6.30;99.90;;;;;;4877408;29;36662;-80
2022/11/13 01:10:43;;;;;;;64.03;45.13;;;6.30;99.90;;;;;;4881285;29;37930;-82
2022/11/13 01:13:10;;;;;;;68.50;48.03;;;6.30;99.90;;;;;;4880495;29;20106;-80
2022/11/13 01:15:43;;;;;;;59.77;44.90;;;6.30;99.90;;;;;;4883791;29;37564;-81
2022/11/13 01:18:11;;;;;;;71.13;48.03;;;6.30;99.90;;;;;;4864420;29;36507;-81
2022/11/13 01:20:37;;;;;;;67.17;46.27;;;6.30;99.90;;;;;;4865499;29;37559;-81
2022/11/13 01:23:03;;;;;;;66.47;47.40;;;6.30;99.90;;;;;;4873265;29;37584;-81
2022/11/13 01:25:30;;;;;;;63.93;44.87;;;6.20;99.90;;;;;;4864194;29;36790;-82
2022/11/13 01:27:56;;;;;;;59.63;43.73;;;6.20;99.90;;;;;;4864979;29;35787;-80
2022/11/13 01:30:23;;;;;;;59.83;44.33;;;6.20;99.90;;;;;;4865591;29;38660;-81
2022/11/13 01:32:49;;;;;;;58.87;43.87;;;6.20;99.90;;;;;;4875402;29;38816;-80
2022/11/13 01:35:15;;;;;;;64.27;45.93;;;6.20;99.90;;;;;;4879934;29;37696;-82
2022/11/13 01:37:41;;;;;;;59.43;45.80;;;6.20;99.90;;;;;;4866135;29;37809;-80
2022/11/13 01:40:09;;;;;;;62.77;44.63;;;6.20;99.90;;;;;;4860522;29;38943;-80
2022/11/13 01:42:35;;;;;;;60.33;43.70;;;6.10;99.90;;;;;;4864149;29;37778;-79
2022/11/13 01:45:02;;;;;;;64.87;46.90;;;6.10;99.90;;;;;;4862198;29;38091;-80
2022/11/13 01:47:30;;;;;;;56.97;40.60;;;6.10;99.90;;;;;;4883926;29;35223;-80
2022/11/13 01:49:59;;;;;;;66.57;45.53;;;6.10;99.90;;;;;;4882786;29;39835;-80
2022/11/13 01:52:30;;;;;;;63.40;46.50;;;6.10;99.90;;;;;;4896557;29;37781;-80
2022/11/13 01:55:03;;;;;;;55.47;40.07;;;6.00;99.90;;;;;;4887272;29;38581;-81
2022/11/13 01:57:29;;;;;;;61.60;45.20;;;6.10;99.90;;;;;;4887247;29;36639;-80
2022/11/13 01:59:59;;;;;;;52.50;37.83;;;6.20;99.90;;;;;;4891889;29;38873;-80
2022/11/13 02:02:28;;;;;;;59.13;40.70;;;6.10;99.90;;;;;;5252646;23;36428;-79
2022/11/13 02:04:54;;;;;;;57.60;42.27;;;6.10;99.90;;;;;;4865709;29;37075;-78
2022/11/13 02:07:22;;;;;;;63.50;43.70;;;6.10;99.90;;;;;;4873194;29;38239;-78
2022/11/13 02:09:50;;;;;;;59.93;44.23;;;6.00;99.90;;;;;;4874879;29;38523;-79
2022/11/13 02:12:39;;;;;;;51.93;40.50;;;5.90;99.90;;;;;;4869819;29;38779;-78
2022/11/13 02:15:07;;;;;;;64.63;46.27;;;5.90;99.90;;;;;;4869037;29;38362;-79
2022/11/13 02:17:41;;;;;;;58.57;42.20;;;5.90;99.90;;;;;;4872175;29;36668;-79
2022/11/13 02:20:08;;;;;;;59.77;43.87;;;5.80;99.90;;;;;;4869827;29;38485;-79
2022/11/13 02:22:54;;;;;;;56.80;42.70;;;5.70;99.90;;;;;;4869893;29;38947;-78
2022/11/13 02:25:23;;;;;;;55.67;42.23;;;5.70;99.90;;;;;;4863246;29;40093;-78
2022/11/13 02:27:50;;;;;;;56.37;42.27;;;5.60;99.90;;;;;;4863618;29;37408;-78
2022/11/13 02:30:18;;;;;;;58.80;43.30;;;5.60;99.90;;;;;;4866977;29;39800;-78
2022/11/13 02:32:46;;;;;;;61.03;44.53;;;5.50;99.90;;;;;;4861756;29;38572;-78
2022/11/13 02:35:16;;;;;;;56.50;40.73;;;5.50;99.90;;;;;;4864548;29;38378;-78
2022/11/13 02:37:42;;;;;;;54.77;39.93;;;5.50;99.90;;;;;;4863694;29;37617;-79
2022/11/13 02:40:11;;;;;;;56.80;41.43;;;5.50;99.90;;;;;;4861384;29;39104;-78
2022/11/13 02:42:37;;;;;;;58.27;42.87;;;5.40;99.90;;;;;;4867210;29;38754;-78
2022/11/13 02:45:05;;;;;;;47.13;35.50;;;5.40;99.90;;;;;;4867528;29;40931;-78
2022/11/13 02:47:31;;;;;;;56.27;38.57;;;5.40;99.90;;;;;;4866044;29;48672;-78
2022/11/13 02:49:57;;;;;;;55.67;40.40;;;5.40;99.90;;;;;;4869588;29;39256;-78
2022/11/13 02:52:23;;;;;;;57.63;40.83;;;5.40;99.90;;;;;;4873773;29;38881;-78
2022/11/13 02:54:49;;;;;;;58.90;42.00;;;5.30;99.90;;;;;;4873947;29;38575;-78
2022/11/13 02:57:16;;;;;;;60.50;43.00;;;5.30;99.90;;;;;;4874631;29;37878;-77
2022/11/13 02:59:42;;;;;;;56.43;40.17;;;5.30;99.90;;;;;;4871534;29;39826;-78
2022/11/13 03:02:08;;;;;;;53.70;41.37;;;5.30;99.90;;;;;;4865108;29;38863;-78
2022/11/13 03:04:34;;;;;;;52.13;39.50;;;5.40;99.90;;;;;;4871576;29;38402;-78
2022/11/13 03:07:00;;;;;;;57.20;41.70;;;5.30;99.90;;;;;;4859207;29;37799;-78
2022/11/13 03:09:27;;;;;;;48.53;37.53;;;5.30;99.90;;;;;;4882909;29;40513;-78
2022/11/13 03:11:53;;;;;;;51.63;37.13;;;5.30;99.90;;;;;;4867581;29;38195;-78
2022/11/13 03:14:19;;;;;;;43.73;32.60;;;5.30;99.90;;;;;;4869333;29;38376;-78
2022/11/13 03:16:45;;;;;;;51.87;38.17;;;5.30;99.90;;;;;;4867914;29;37452;-78
2022/11/13 03:19:11;;;;;;;55.40;39.23;;;5.30;99.90;;;;;;4869224;29;39634;-78
2022/11/13 03:21:37;;;;;;;53.20;38.87;;;5.30;99.90;;;;;;4880255;29;39439;-77
2022/11/13 03:24:03;;;;;;;54.27;37.03;;;5.20;99.90;;;;;;4867929;29;38415;-78
2022/11/13 03:26:29;;;;;;;51.27;36.20;;;5.20;99.90;;;;;;4866404;29;37591;-78
2022/11/13 03:28:56;;;;;;;49.97;36.27;;;5.20;99.90;;;;;;4865110;29;39514;-79
2022/11/13 03:31:22;;;;;;;49.30;35.90;;;5.20;99.90;;;;;;4863923;29;38746;-78
2022/11/13 03:33:53;;;;;;;51.40;38.03;;;5.20;99.90;;;;;;4864344;29;39462;-78
2022/11/13 03:36:19;;;;;;;48.87;34.43;;;5.10;99.90;;;;;;4865321;29;37485;-78
2022/11/13 03:38:48;;;;;;;43.37;33.17;;;5.00;99.90;;;;;;4867626;29;37797;-78
2022/11/13 03:41:15;;;;;;;42.40;31.10;;;5.00;99.90;;;;;;4863066;29;37964;-78
2022/11/13 03:43:41;;;;;;;51.27;35.57;;;5.10;99.90;;;;;;4865985;29;39122;-78
2022/11/13 03:46:08;;;;;;;42.87;32.73;;;5.10;99.90;;;;;;4867668;29;37454;-78
2022/11/13 03:48:34;;;;;;;43.90;34.83;;;5.10;99.90;;;;;;4866540;29;39707;-78
2022/11/13 03:51:01;;;;;;;41.70;32.70;;;5.00;99.90;;;;;;4864647;29;39404;-78
2022/11/13 03:53:28;;;;;;;45.90;34.40;;;5.00;99.90;;;;;;4858624;29;38852;-78
2022/11/13 03:55:54;;;;;;;43.23;33.50;;;5.00;99.90;;;;;;4863845;29;37850;-78
2022/11/13 03:58:20;;;;;;;39.77;31.53;;;5.00;99.90;;;;;;4866839;29;40590;-78
2022/11/13 04:00:47;;;;;;;35.90;28.67;;;4.90;99.90;;;;;;4868777;29;39084;-78
2022/11/13 04:03:13;;;;;;;46.47;32.40;;;4.90;99.90;;;;;;4862181;29;38876;-78
2022/11/13 04:05:41;;;;;;;35.43;27.00;;;5.00;99.90;;;;;;4879498;29;36500;-79
2022/11/13 04:08:07;;;;;;;35.07;27.33;;;4.90;99.90;;;;;;4870229;29;40291;-79
2022/11/13 04:10:34;;;;;;;33.30;25.73;;;5.00;99.90;;;;;;4866680;29;39282;-78
2022/11/13 04:13:00;;;;;;;39.20;29.53;;;5.00;99.90;;;;;;4866408;29;39284;-78
2022/11/13 04:15:27;;;;;;;41.20;29.73;;;5.00;99.90;;;;;;4869840;29;37550;-78
2022/11/13 04:17:53;;;;;;;38.33;29.37;;;5.00;99.90;;;;;;4875571;29;39313;-78
2022/11/13 04:20:19;;;;;;;36.17;27.37;;;5.10;99.90;;;;;;4866121;29;38948;-78
2022/11/13 04:22:45;;;;;;;41.13;29.80;;;5.10;99.90;;;;;;4867327;29;37144;-78
2022/11/13 04:25:11;;;;;;;38.00;26.40;;;5.00;99.90;;;;;;4864895;29;37568;-78
2022/11/13 04:27:37;;;;;;;37.93;27.47;;;5.10;99.90;;;;;;4867261;29;40176;-78
2022/11/13 04:30:06;;;;;;;34.93;26.17;;;5.10;99.90;;;;;;4866252;29;38949;-77
2022/11/13 04:32:32;;;;;;;31.60;19.53;;;5.00;99.90;;;;;;4866518;29;47311;-78
2022/11/13 04:34:58;;;;;;;35.57;26.40;;;5.00;99.90;;;;;;4865239;29;38822;-78
2022/11/13 04:37:25;;;;;;;34.40;25.87;;;5.00;99.90;;;;;;4866077;29;39310;-78
2022/11/13 04:39:51;;;;;;;36.23;25.97;;;5.00;99.90;;;;;;4864199;29;38343;-78
2022/11/13 04:45:02;;;;;;;37.60;26.93;;;4.90;99.90;;;;;;4865122;29;36916;-78
2022/11/13 04:47:28;;;;;;;37.97;27.43;;;4.90;99.90;;;;;;4868588;29;39722;-78
2022/11/13 04:49:54;;;;;;;32.60;25.87;;;4.80;99.90;;;;;;4866300;29;38934;-78
2022/11/13 04:52:20;;;;;;;28.17;21.13;;;4.80;99.90;;;;;;4864749;29;38320;-79
2022/11/13 04:54:46;;;;;;;38.77;26.27;;;4.80;99.90;;;;;;4864813;29;38084;-78
2022/11/13 04:57:13;;;;;;;33.47;25.50;;;4.80;99.90;;;;;;4865700;29;40404;-78
2022/11/13 04:59:39;;;;;;;32.13;24.77;;;4.80;99.90;;;;;;4863046;29;39458;-78
2022/11/13 05:02:05;;;;;;;30.70;23.30;;;4.70;99.90;;;;;;4883829;29;38583;-78
2022/11/13 05:04:31;;;;;;;33.03;24.43;;;4.70;99.90;;;;;;4856952;29;36964;-78
2022/11/13 05:06:58;;;;;;;28.93;21.93;;;4.70;99.90;;;;;;4857623;29;38677;-78
2022/11/13 05:09:24;;;;;;;33.30;23.80;;;4.70;99.90;;;;;;4856809;29;38735;-78
2022/11/13 05:11:50;;;;;;;30.10;22.50;;;4.70;99.90;;;;;;4863291;29;37755;-78
2022/11/13 05:14:19;;;;;;;31.97;22.77;;;4.60;99.90;;;;;;4873416;29;38150;-78
2022/11/13 05:16:45;;;;;;;30.17;22.07;;;4.60;99.90;;;;;;4865065;29;40628;-78
2022/11/13 05:19:11;;;;;;;30.93;21.90;;;4.60;99.90;;;;;;4863389;29;39799;-78
2022/11/13 05:21:38;;;;;;;31.83;21.37;;;4.50;99.90;;;;;;4871399;29;39084;-78
2022/11/13 05:24:05;;;;;;;26.47;21.13;;;4.50;99.90;;;;;;4867460;29;36577;-78
2022/11/13 05:26:31;;;;;;;32.37;21.13;;;4.60;99.90;;;;;;4860958;29;39545;-78
2022/11/13 05:28:59;;;;;;;28.70;21.70;;;4.60;99.90;;;;;;4865537;29;37001;-78
2022/11/13 05:31:26;;;;;;;31.03;21.77;;;4.70;99.90;;;;;;4863240;29;38062;-78
2022/11/13 05:33:55;;;;;;;27.93;20.67;;;4.70;99.90;;;;;;4868778;29;37623;-78
2022/11/13 05:36:22;;;;;;;26.33;20.47;;;4.60;99.90;;;;;;4865602;29;39744;-78
2022/11/13 05:38:48;;;;;;;29.73;21.70;;;4.60;99.90;;;;;;4863837;29;37141;-77
2022/11/13 05:41:18;;;;;;;32.30;22.63;;;4.60;99.90;;;;;;4858351;29;37027;-78
2022/11/13 05:43:45;;;;;;;38.50;23.33;;;4.60;99.90;;;;;;4861138;29;36756;-78
2022/11/13 05:46:20;;;;;;;25.93;19.50;;;4.50;99.90;;;;;;4866572;29;37533;-78
2022/11/13 05:48:50;;;;;;;27.10;19.50;;;4.50;99.90;;;;;;4864892;29;40198;-78
2022/11/13 05:51:22;;;;;;;29.27;20.63;;;4.60;99.90;;;;;;4864882;29;37841;-77
2022/11/13 05:53:48;;;;;;;26.30;16.85;;;4.70;99.90;;;;;;4864627;29;36074;-78
2022/11/13 05:56:20;;;;;;;30.53;21.33;;;4.70;99.90;;;;;;4868962;29;37563;-78
2022/11/13 05:58:47;;;;;;;29.48;20.58;;;4.70;99.90;;;;;;4882199;29;37767;-78
2022/11/13 06:01:15;;;;;;;27.13;19.63;;;4.70;99.90;;;;;;4869455;29;38884;-78
2022/11/13 06:03:42;;;;;;;31.23;21.57;;;4.60;99.90;;;;;;4872407;29;37484;-77
2022/11/13 06:06:10;;;;;;;24.17;17.00;;;4.60;99.90;;;;;;4876709;29;37962;-78
2022/11/13 06:08:37;;;;;;;26.93;20.00;;;4.60;99.90;;;;;;4876831;29;38857;-79
2022/11/13 06:11:07;;;;;;;28.60;20.90;;;4.50;99.90;;;;;;4870927;29;38714;-78
2022/11/13 06:13:34;;;;;;;29.30;22.20;;;4.50;99.90;;;;;;4870095;29;49391;-78
2022/11/13 06:16:03;;;;;;;28.93;20.13;;;4.50;99.90;;;;;;4872916;29;39307;-78
2022/11/13 06:18:29;;;;;;;28.60;21.47;;;4.50;99.90;;;;;;4873612;29;39139;-78
2022/11/13 06:21:00;;;;;;;32.37;22.00;;;4.50;99.90;;;;;;4871957;29;37824;-78
2022/11/13 06:23:26;;;;;;;25.27;18.90;;;4.50;99.90;;;;;;4875279;29;37892;-78
2022/11/13 06:25:59;;;;;;;27.30;19.20;;;4.60;99.90;;;;;;4874411;29;39084;-78
2022/11/13 06:28:25;;;;;;;29.87;21.27;;;4.60;99.90;;;;;;4877338;29;38774;-79
2022/11/13 06:30:51;;;;;;;26.93;20.17;;;4.70;99.90;;;;;;4871455;29;38480;-79
2022/11/13 06:33:17;;;;;;;34.77;23.97;;;4.70;99.90;;;;;;4876496;29;38549;-78
2022/11/13 06:35:44;;;;;;;30.47;21.57;;;4.70;99.90;;;;;;4870386;29;39010;-78
2022/11/13 06:38:10;;;;;;;28.90;20.33;;;4.70;99.90;;;;;;4866516;29;39275;-78
2022/11/13 06:40:39;;;;;;;28.50;22.60;;;4.70;99.90;;;;;;4865835;29;38549;-77
2022/11/13 06:43:05;;;;;;;33.57;24.80;;;4.70;99.90;;;;;;4871568;29;37331;-78
2022/11/13 06:45:32;;;;;;;38.27;27.03;;;4.70;99.90;;;;;;4865663;29;37464;-77
2022/11/13 06:47:58;;;;;;;33.00;24.17;;;4.70;99.90;;;;;;4869996;29;38851;-77
2022/11/13 06:50:24;;;;;;;31.87;22.30;;;4.70;99.90;;;;;;4870877;29;40074;-78
2022/11/13 06:52:50;;;;;;;33.93;24.47;;;4.70;99.90;;;;;;4876371;29;36192;-78
2022/11/13 06:55:16;;;;;;;32.57;23.23;;;4.80;99.90;;;;;;4870330;29;38495;-78
2022/11/13 06:57:42;;;;;;;25.30;19.63;;;4.80;99.90;;;;;;4868762;29;39362;-80
2022/11/13 07:00:09;;;;;;;30.17;21.43;;;4.80;99.90;;;;;;4877995;29;36857;-80
2022/11/13 07:02:35;;;;;;;30.70;22.10;;;4.80;99.90;;;;;;4867914;29;38263;-80
2022/11/13 07:05:01;;;;;;;30.23;21.97;;;4.90;99.90;;;;;;4874295;29;38891;-80
2022/11/13 07:07:28;;;;;;;30.23;23.07;;;4.80;99.90;;;;;;4872479;29;38027;-80
2022/11/13 07:09:54;;;;;;;28.63;21.23;;;4.80;99.90;;;;;;4887271;29;40081;-80
2022/11/13 07:12:20;;;;;;;32.23;22.83;;;4.80;99.90;;;;;;4867802;29;38479;-77
2022/11/13 07:14:46;;;;;;;31.67;24.00;;;4.80;99.90;;;;;;4881441;29;40196;-77
2022/11/13 07:17:12;;;;;;;27.30;22.33;;;4.70;99.90;;;;;;4871020;29;37320;-78
2022/11/13 07:19:38;;;;;;;36.07;24.90;;;4.80;99.90;;;;;;4865484;29;38000;-78
2022/11/13 07:22:04;;;;;;;32.30;23.10;;;4.70;99.90;;;;;;4874565;29;37851;-78
2022/11/13 07:24:30;;;;;;;31.10;22.30;;;4.80;99.90;;;;;;4877124;29;38828;-78
2022/11/13 07:26:59;;;;;;;31.90;22.60;;;4.90;99.90;;;;;;4876035;29;39509;-78
2022/11/13 07:29:25;;;;;;;32.13;22.20;;;4.90;99.90;;;;;;4877728;29;39040;-77
2022/11/13 07:31:52;;;;;;;26.50;18.63;;;5.00;99.90;;;;;;4869722;29;36868;-78
2022/11/13 07:34:18;;;;;;;27.07;20.47;;;5.00;99.90;;;;;;4884187;29;40742;-78
2022/11/13 07:36:44;;;;;;;27.13;21.53;;;5.00;99.90;;;;;;4882233;29;40045;-77
2022/11/13 07:39:10;;;;;;;32.00;23.40;;;5.10;99.90;;;;;;4864110;29;38208;-78
2022/11/13 07:41:36;;;;;;;22.07;16.90;;;5.10;99.90;;;;;;4866037;29;37467;-78
2022/11/13 07:44:02;;;;;;;29.40;20.77;;;5.10;99.90;;;;;;4880939;29;39145;-78
2022/11/13 07:46:28;;;;;;;28.33;19.77;;;5.20;99.90;;;;;;4864026;29;38521;-78
2022/11/13 07:48:55;;;;;;;30.10;23.90;;;5.20;99.90;;;;;;4867492;29;39147;-78
2022/11/13 07:51:21;;;;;;;26.00;20.03;;;5.30;99.90;;;;;;4863865;29;37107;-78
2022/11/13 07:53:47;;;;;;;30.93;21.57;;;5.30;99.90;;;;;;4866581;29;38430;-77
2022/11/13 07:56:13;;;;;;;30.57;20.30;;;5.40;99.90;;;;;;4863688;29;39552;-77
2022/11/13 07:58:39;;;;;;;24.37;19.37;;;5.60;99.90;;;;;;4869791;29;37547;-78
2022/11/13 08:01:06;;;;;;;24.00;18.17;;;5.70;99.90;;;;;;4877967;29;38020;-78
2022/11/13 08:03:32;;;;;;;25.67;19.63;;;5.90;99.90;;;;;;4870302;29;39118;-77
2022/11/13 08:06:00;;;;;;;29.63;23.37;;;6.10;99.90;;;;;;4867831;29;38527;-78
2022/11/13 08:08:26;;;;;;;25.20;19.90;;;6.20;99.90;;;;;;4870745;29;38422;-78
2022/11/13 08:10:52;;;;;;;24.63;19.80;;;6.20;99.90;;;;;;4867066;29;38204;-77
2022/11/13 08:13:18;;;;;;;24.10;19.10;;;6.40;99.90;;;;;;4870353;29;39191;-78
2022/11/13 08:15:46;;;;;;;27.23;21.50;;;6.50;99.90;;;;;;4868994;29;38490;-78
2022/11/13 08:18:12;;;;;;;24.37;19.27;;;6.50;99.90;;;;;;4877793;29;38922;-78
2022/11/13 08:20:38;;;;;;;26.97;21.43;;;6.60;99.90;;;;;;4868338;29;37459;-78
2022/11/13 08:23:04;;;;;;;26.93;20.70;;;6.60;99.90;;;;;;4867284;29;39446;-78
2022/11/13 08:25:31;;;;;;;24.20;19.37;;;6.70;99.90;;;;;;4862953;29;38469;-78
2022/11/13 08:27:58;;;;;;;23.53;17.77;;;6.80;99.90;;;;;;4867926;29;38327;-78
2022/11/13 08:30:26;;;;;;;27.67;19.70;;;6.80;99.90;;;;;;4866405;29;37909;-78
2022/11/13 08:32:53;;;;;;;26.27;20.50;;;6.80;99.90;;;;;;4866324;29;39564;-79
2022/11/13 08:35:20;;;;;;;22.17;19.50;;;6.90;99.90;;;;;;4866524;29;39150;-78
2022/11/13 08:37:46;;;;;;;23.50;18.80;;;7.00;99.90;;;;;;4865139;29;37196;-78
2022/11/13 08:40:12;;;;;;;29.67;21.77;;;7.00;99.90;;;;;;4864782;29;36853;-79
2022/11/13 08:42:41;;;;;;;26.73;19.10;;;7.00;99.90;;;;;;4861640;29;40335;-78
2022/11/13 08:45:08;;;;;;;23.67;19.20;;;7.10;99.90;;;;;;4862452;29;39880;-78
2022/11/13 08:47:35;;;;;;;26.30;19.70;;;7.20;99.90;;;;;;4867096;29;35880;-78
2022/11/13 08:50:02;;;;;;;26.53;18.60;;;7.20;99.90;;;;;;4882309;29;37814;-78
2022/11/13 08:52:29;;;;;;;22.63;19.03;;;7.30;99.90;;;;;;4882177;29;39637;-79
2022/11/13 08:54:55;;;;;;;24.40;18.27;;;7.30;99.90;;;;;;4868701;29;39240;-78
2022/11/13 08:57:21;;;;;;;22.60;17.40;;;7.30;99.90;;;;;;4879206;29;40702;-78
2022/11/13 08:59:47;;;;;;;21.13;17.33;;;7.40;99.90;;;;;;4868497;29;36533;-78
2022/11/13 09:02:15;;;;;;;23.53;18.53;;;7.40;99.90;;;;;;4863583;29;40899;-78
2022/11/13 09:04:41;;;;;;;20.87;18.30;;;7.40;99.90;;;;;;4866369;29;38984;-79
2022/11/13 09:07:08;;;;;;;23.20;18.83;;;7.50;99.90;;;;;;4871011;29;38458;-79
2022/11/13 09:09:34;;;;;;;26.10;19.53;;;7.70;99.90;;;;;;4863042;29;38476;-78
2022/11/13 09:12:03;;;;;;;25.00;18.90;;;7.70;99.90;;;;;;4866772;29;42219;-79
2022/11/13 09:14:29;;;;;;;21.17;17.50;;;7.80;99.90;;;;;;4861607;29;48909;-79
2022/11/13 09:16:58;;;;;;;21.10;17.17;;;7.90;99.90;;;;;;4867908;29;39546;-79
2022/11/13 09:19:24;;;;;;;22.50;18.33;;;8.00;99.90;;;;;;4865031;29;38986;-79
2022/11/13 09:21:51;;;;;;;19.40;16.63;;;8.00;99.90;;;;;;4867982;29;40314;-77
2022/11/13 09:24:17;;;;;;;21.10;17.47;;;8.10;99.90;;;;;;4868150;29;39130;-78
2022/11/13 09:26:43;;;;;;;26.77;19.40;;;8.20;99.90;;;;;;4880823;29;38219;-78
2022/11/13 09:29:10;;;;;;;21.80;17.83;;;8.20;99.90;;;;;;4871612;29;37561;-77
2022/11/13 09:31:40;;;;;;;21.60;18.10;;;8.20;99.90;;;;;;4869538;29;39694;-80
2022/11/13 09:34:13;;;;;;;24.43;19.90;;;8.30;99.90;;;;;;4849640;29;39697;-77
2022/11/13 09:36:39;;;;;;;24.25;18.05;;;8.30;99.90;;;;;;4886166;29;38051;-78
2022/11/13 09:39:09;;;;;;;22.93;18.97;;;8.40;99.90;;;;;;4860655;29;36520;-79
2022/11/13 09:42:17;;;;;;;24.57;19.27;;;8.50;99.90;;;;;;4869980;29;38831;-77
2022/11/13 09:45:15;;;;;;;23.33;17.00;;;8.60;99.90;;;;;;4874786;29;48163;-78
2022/11/13 09:47:47;;;;;;;23.67;18.60;;;8.70;99.90;;;;;;4877991;29;47383;-78
2022/11/13 09:50:29;;;;;;;22.45;17.30;;;8.90;99.90;;;;;;4859494;29;39366;-77
2022/11/13 09:52:59;;;;;;;19.10;16.23;;;9.00;99.90;;;;;;4872914;29;38506;-78
2022/11/13 09:55:32;;;;;;;19.83;16.23;;;9.10;99.90;;;;;;4846598;29;39061;-75
2022/11/13 09:58:42;;;;;;;21.87;18.43;;;9.20;99.90;;;;;;4867007;29;37008;-75
2022/11/13 10:01:37;;;;;;;19.70;16.53;;;9.20;99.90;;;;;;4829985;29;48899;-76
2022/11/13 10:04:10;;;;;;;23.67;17.93;;;9.40;99.90;;;;;;4858976;29;38728;-76
2022/11/13 10:07:03;;;;;;;18.92;16.23;;;9.40;99.90;;;;;;4877309;29;39042;-76
2022/11/13 10:09:59;;;;;;;19.87;16.93;;;9.50;99.90;;;;;;4868426;29;48622;-77
2022/11/13 10:12:31;;;;;;;20.43;16.10;;;9.60;99.90;;;;;;4869835;29;37011;-78
2022/11/13 10:15:09;;;;;;;21.95;18.23;;;9.70;99.90;;;;;;4879736;29;40025;-77
2022/11/13 10:18:04;;;;;;;20.63;15.93;;;9.80;99.90;;;;;;4871228;29;48763;-77
2022/11/13 10:21:19;;;;;;;19.63;15.40;;;9.90;99.90;;;;;;4877984;29;47432;-77
2022/11/13 10:24:02;;;;;;;22.07;15.87;;;10.10;99.90;;;;;;4879748;29;47647;-76
2022/11/13 10:26:29;;;;;;;19.30;14.93;;;10.30;99.90;;;;;;4866939;29;47375;-77
2022/11/13 10:29:04;;;;;;;18.80;15.33;;;10.40;99.90;;;;;;4873101;29;37438;-76
2022/11/13 10:31:48;;;;;;;16.10;14.20;;;10.40;99.90;;;;;;4873985;29;48476;-77
2022/11/13 10:34:16;;;;;;;16.87;14.43;;;10.50;99.90;;;;;;4871364;29;38537;-75
2022/11/13 10:37:25;;;;;;;17.63;15.07;;;10.60;99.90;;;;;;4874819;29;38152;-77
2022/11/13 10:39:55;;;;;;;19.57;15.27;;;10.60;99.90;;;;;;4868499;29;47196;-78
2022/11/13 10:42:23;;;;;;;16.47;14.40;;;10.60;99.90;;;;;;4872148;29;39216;-78
2022/11/13 10:44:56;;;;;;;17.10;15.30;;;10.70;99.90;;;;;;4871221;29;37458;-77
2022/11/13 10:47:23;;;;;;;;;;;10.90;99.90;;;;;;4870424;29;36672;-77
2022/11/13 10:49:49;;;;;;;19.13;13.20;;;11.00;99.90;;;;;;4869262;29;37537;-77
2022/11/13 10:52:26;;;;;;;16.57;13.90;;;11.10;99.90;;;;;;4883899;29;37022;-77
2022/11/13 10:55:11;;;;;;;17.23;13.70;;;11.20;99.90;;;;;;4865601;29;36058;-77
2022/11/13 10:57:38;;;;;;;19.83;13.97;;;11.20;99.90;;;;;;4871257;29;47267;-78
2022/11/13 11:00:32;;;;;;;17.67;14.17;;;11.20;99.90;;;;;;4873299;29;38343;-77
2022/11/13 11:03:00;;;;;;;16.57;14.13;;;11.20;99.90;;;;;;4877448;29;48510;-78
2022/11/13 11:05:27;;;;;;;16.37;12.83;;;11.30;99.90;;;;;;4871401;29;39011;-77
2022/11/13 11:07:57;;;;;;;15.90;12.97;;;11.40;99.90;;;;;;4869670;29;39375;-77
2022/11/13 11:12:14;;;;;;;15.80;12.93;;;11.50;99.90;;;;;;4862318;29;39804;-78
2022/11/13 11:13:28;;;;;;;16.73;12.80;;;11.60;99.90;;;;;;4871807;29;37449;-78
2022/11/13 11:16:01;;;;;;;15.10;11.40;;;11.80;99.90;;;;;;4871679;29;37486;-78
2022/11/13 11:18:50;;;;;;;17.23;12.18;;;11.90;99.90;;;;;;4865426;29;38661;-78
2022/11/13 11:21:23;;;;;;;15.63;12.82;;;12.10;99.90;;;;;;4871728;29;39283;-77
2022/11/13 11:24:05;;;;;;;16.65;11.77;;;12.20;99.90;;;;;;4870809;29;39717;-76
2022/11/13 11:26:36;;;;;;;13.18;11.40;;;12.30;99.90;;;;;;4885080;29;47257;-76
2022/11/13 11:29:17;;;;;;;13.35;10.98;;;12.40;99.90;;;;;;4872387;29;38715;-77
2022/11/13 11:31:55;;;;;;;16.30;11.65;;;12.50;99.90;;;;;;4888880;29;46619;-77
2022/11/13 11:34:31;;;;;;;13.52;10.38;;;12.60;99.90;;;;;;4871195;29;38769;-76
2022/11/13 11:37:13;;;;;;;11.80;10.52;;;12.60;99.90;;;;;;4876916;29;37472;-78
2022/11/13 11:39:47;;;;;;;12.75;10.52;;;12.60;99.90;;;;;;4875694;29;47332;-77
2022/11/13 11:42:36;;;;;;;13.68;9.68;;;12.80;99.90;;;;;;4887970;29;37478;-77
2022/11/13 11:45:22;;;;;;;12.25;10.43;;;12.70;99.90;;;;;;4888079;29;37231;-77
2022/11/13 11:47:48;;;;;;;12.40;9.50;;;12.60;99.90;;;;;;4870580;29;47094;-77
2022/11/13 11:50:22;;;;;;;11.90;10.25;;;12.60;99.90;;;;;;4868553;29;38792;-78
2022/11/13 11:53:16;;;;;;;15.82;10.48;;;12.60;99.90;;;;;;4881656;29;37580;-77
2022/11/13 11:55:58;;;;;;;11.68;10.38;;;12.50;99.90;;;;;;4863386;29;48806;-77
2022/11/13 11:58:52;;;;;;;11.40;10.07;;;12.40;99.90;;;;;;4879696;29;37557;-77
2022/11/13 12:02:05;;;;;;;11.63;9.82;;;12.30;99.90;;;;;;4874247;29;39129;-77
2022/11/13 12:04:40;;;;;;;11.35;10.15;;;12.50;99.90;;;;;;4847599;29;47292;-77
2022/11/13 12:07:25;;;;;;;11.52;8.93;;;12.70;99.90;;;;;;4868842;29;38010;-78
2022/11/13 12:10:06;;;;;;;14.15;10.48;;;12.90;99.90;;;;;;4872877;29;38127;-78
2022/11/13 12:12:56;;;;;;;12.18;9.90;;;13.00;99.90;;;;;;4881091;29;48616;-77
2022/11/13 12:15:44;;;;;;;11.07;9.35;;;13.10;99.90;;;;;;4871405;29;37087;-77
2022/11/13 12:18:25;;;;;;;11.98;9.52;;;13.20;99.90;;;;;;4874912;29;37712;-77
2022/11/13 12:21:16;;;;;;;14.65;11.07;;;13.20;99.90;;;;;;4888623;29;36936;-80
2022/11/13 12:24:38;;;;;;;12.32;8.90;;;13.20;99.90;;;;;;4866105;29;48737;-77
2022/11/13 12:27:39;;;;;;;11.50;9.15;;;13.40;99.90;;;;;;4784426;29;47161;-78
2022/11/13 12:30:22;;;;;;;12.23;9.43;;;13.50;99.90;;;;;;4783955;29;38183;-78
2022/11/13 12:33:07;;;;;;;10.48;8.98;;;13.60;99.90;;;;;;4860860;29;38750;-77
2022/11/13 12:35:34;;;;;;;10.68;8.60;;;13.70;99.90;;;;;;4873503;29;48574;-77
2022/11/13 12:38:20;;;;;;;11.35;8.98;;;13.70;99.90;;;;;;4885708;29;39904;-77
2022/11/13 12:41:13;;;;;;;11.20;8.75;;;13.70;99.90;;;;;;4867793;29;47224;-77
2022/11/13 12:43:45;;;;;;;;;;;13.80;99.90;;;;;;4864991;29;47234;-77
2022/11/13 12:46:12;;;;;;;9.05;7.72;;;13.80;99.90;;;;;;4889271;29;38586;-77
2022/11/13 12:48:44;;;;;;;11.50;8.07;;;13.80;99.90;;;;;;4875400;29;38578;-77
2022/11/13 12:51:13;;;;;;;9.35;7.78;;;13.80;99.90;;;;;;4873898;29;38673;-78
2022/11/13 12:53:57;;;;;;;10.13;8.00;;;13.80;99.90;;;;;;4867413;29;37383;-78
2022/11/13 12:56:23;;;;;;;10.27;8.23;;;13.80;99.90;;;;;;4867366;29;39258;-78